Surfside, California
Current Conditions -  °F | °C
As of 1:58 AM on Monday 20 Oct 2014 (Local Time) from KSLI Reporting Station
Clear Clear  
Wind Chill: 64°   Ceiling: Unl
Heat Index: 64°   Visibility: 10mi
Dew Point: 63°   Wind: 0mph
Humidity: 96%   Direction: NA
Pressure: 29.89"   Gusts: NA
Location:  33.73°N, 118.08°W
Report Text: KSLI 200858Z AUTO 00000KT 10SM CLR 18/17 A2989 RMK AO2 SLP125 T01760170 55000
Loading
Personal Weather Stations






























Interactive Weather Map
Tropical Storm Tracking
New forecast layout! Learn more

10-Day Weather Forecast

Advertisements
Track Severe Weather on mobile